Time;durP1;ratioP1;P1;durP2;ratioP2;P2;SDS_P1;SDS_P2;PMS_P1;PMS_P2;Temp;Humidity;BMP_temperature;BMP_pressure;BME280_temperature;BME280_humidity;BME280_pressure;Samples;Min_cycle;Max_cycle;Signal;HPM_P1;HPM_P2
2021/04/09 00:02:21;;;;;;;19.02;12.85;;;5.70;99.90;;;;;;5092805;28;20483;-88
2021/04/09 00:04:48;;;;;;;18.88;13.07;;;4.90;99.50;;;;;;5109780;28;20116;-88
2021/04/09 00:07:15;;;;;;;18.65;12.80;;;5.50;99.60;;;;;;5076231;28;20119;-88
2021/04/09 00:09:42;;;;;;;21.17;13.20;;;5.00;99.40;;;;;;5093122;28;20036;-88
2021/04/09 00:12:09;;;;;;;17.80;13.05;;;4.90;99.60;;;;;;5109798;28;20143;-89
2021/04/09 00:14:36;;;;;;;17.27;12.60;;;4.90;99.70;;;;;;5093237;28;20041;-88
2021/04/09 00:17:05;;;;;;;18.60;12.73;;;5.10;99.80;;;;;;5093075;28;20055;-88
2021/04/09 00:19:32;;;;;;;22.00;13.13;;;5.00;99.80;;;;;;5092469;28;20071;-89
2021/04/09 00:21:59;;;;;;;18.00;13.25;;;4.90;99.90;;;;;;5091567;28;20039;-88
2021/04/09 00:24:26;;;;;;;19.30;12.90;;;4.80;99.90;;;;;;5092458;28;20036;-87
2021/04/09 00:26:54;;;;;;;18.42;12.82;;;4.80;99.90;;;;;;5092952;28;20124;-89
2021/04/09 00:29:22;;;;;;;22.08;13.05;;;5.10;99.90;;;;;;5109216;28;20032;-88
2021/04/09 00:31:49;;;;;;;17.20;12.85;;;5.00;99.90;;;;;;5109198;28;20127;-89
2021/04/09 00:34:16;;;;;;;17.73;12.80;;;4.80;99.90;;;;;;5092500;28;20037;-88
2021/04/09 00:36:42;;;;;;;19.33;12.70;;;4.80;99.90;;;;;;5076054;28;20032;-88
2021/04/09 00:39:09;;;;;;;18.40;12.90;;;4.80;99.90;;;;;;5092397;28;20044;-89
2021/04/09 00:41:38;;;;;;;19.13;12.60;;;5.40;99.90;;;;;;5108758;28;20119;-89
2021/04/09 00:44:08;;;;;;;17.45;11.82;;;4.80;99.90;;;;;;5108959;28;20039;-89
2021/04/09 00:46:35;;;;;;;20.35;11.63;;;4.80;99.90;;;;;;5092069;28;20046;-89
2021/04/09 00:49:03;;;;;;;18.48;12.55;;;5.30;99.90;;;;;;5108932;28;20036;-88
2021/04/09 00:51:31;;;;;;;17.63;11.57;;;4.70;99.90;;;;;;5091851;28;20484;-89
2021/04/09 00:53:58;;;;;;;20.17;12.50;;;4.70;99.90;;;;;;5075860;28;20485;-89
2021/04/09 00:56:30;;;;;;;18.30;11.90;;;5.20;99.90;;;;;;5075657;28;20044;-90
2021/04/09 00:58:58;;;;;;;16.73;11.15;;;4.70;99.90;;;;;;5092510;28;20131;-89
2021/04/09 01:01:27;;;;;;;17.52;11.30;;;5.20;99.90;;;;;;5092086;28;20040;-88
2021/04/09 01:03:55;;;;;;;19.15;12.30;;;5.50;99.90;;;;;;5092247;28;20037;-88
2021/04/09 01:06:22;;;;;;;18.33;11.73;;;5.10;99.90;;;;;;5108130;28;20033;-88
2021/04/09 01:08:50;;;;;;;18.77;12.07;;;4.70;99.90;;;;;;5091870;28;20128;-88
2021/04/09 01:11:18;;;;;;;17.77;11.10;;;4.80;99.90;;;;;;5108027;28;20064;-88
2021/04/09 01:13:45;;;;;;;20.60;11.52;;;5.00;99.90;;;;;;5091880;28;20548;-89
2021/04/09 01:16:33;;;;;;;16.10;10.98;;;4.70;99.90;;;;;;5092495;28;20052;-89
2021/04/09 01:19:38;;;;;;;17.23;10.98;;;4.70;99.90;;;;;;5109460;28;20036;-89
2021/04/09 01:22:07;;;;;;;17.95;11.35;;;4.70;99.90;;;;;;5108421;28;20048;-89
2021/04/09 01:24:46;;;;;;;21.33;11.77;;;4.70;99.90;;;;;;5107933;28;20036;-89
2021/04/09 01:27:46;;;;;;;21.92;11.40;;;4.90;99.90;;;;;;5108135;28;20033;-89
2021/04/09 01:30:29;;;;;;;19.15;11.18;;;4.70;99.90;;;;;;5108263;28;20036;-89
2021/04/09 01:32:56;;;;;;;18.70;10.82;;;4.60;99.90;;;;;;5091808;28;20040;-89
2021/04/09 01:35:24;;;;;;;20.70;12.55;;;4.60;99.90;;;;;;5091100;28;20088;-89
2021/04/09 01:38:02;;;;;;;16.08;10.95;;;5.10;99.90;;;;;;5107981;28;20036;-90
2021/04/09 01:40:33;;;;;;;20.50;12.10;;;4.60;99.90;;;;;;5107668;28;20036;-89
2021/04/09 01:43:05;;;;;;;16.38;11.43;;;4.60;99.90;;;;;;5108245;28;20065;-89
2021/04/09 01:45:33;;;;;;;18.10;11.15;;;4.60;99.90;;;;;;5107647;28;20037;-89
2021/04/09 01:48:02;;;;;;;17.35;10.80;;;4.50;99.90;;;;;;5107991;28;20037;-89
2021/04/09 01:50:31;;;;;;;17.48;11.30;;;4.50;99.90;;;;;;5108674;28;20469;-89
2021/04/09 01:53:00;;;;;;;19.42;11.30;;;4.50;99.90;;;;;;5091169;28;20040;-90
2021/04/09 01:55:29;;;;;;;20.35;10.93;;;5.20;99.90;;;;;;5107117;28;20120;-87
2021/04/09 01:57:57;;;;;;;19.08;11.15;;;4.50;99.90;;;;;;5074241;28;20079;-89
2021/04/09 02:00:26;;;;;;;22.40;10.50;;;4.80;99.90;;;;;;5074132;28;20048;-88
2021/04/09 02:02:54;;;;;;;18.45;11.57;;;4.50;99.90;;;;;;5090979;28;20048;-89
2021/04/09 02:05:23;;;;;;;22.50;11.30;;;5.20;99.90;;;;;;5091078;28;20443;-88
2021/04/09 02:07:56;;;;;;;17.73;11.32;;;4.50;99.90;;;;;;5107631;28;20125;-89
2021/04/09 02:10:24;;;;;;;20.60;11.32;;;4.50;99.90;;;;;;5108168;28;20443;-89
2021/04/09 02:12:52;;;;;;;17.10;11.30;;;4.50;99.90;;;;;;5091016;28;20032;-89
2021/04/09 02:15:25;;;;;;;16.33;10.52;;;4.50;99.90;;;;;;5107662;28;20086;-89
2021/04/09 02:17:52;;;;;;;22.00;11.70;;;4.40;99.90;;;;;;5107910;28;20040;-90
2021/04/09 02:20:22;;;;;;;19.35;11.18;;;4.60;99.90;;;;;;5090941;28;20088;-89
2021/04/09 02:22:50;;;;;;;18.30;10.85;;;4.90;99.90;;;;;;5107263;28;20116;-89
2021/04/09 02:25:20;;;;;;;18.70;11.57;;;5.00;99.90;;;;;;5107563;28;20037;-90
2021/04/09 02:27:47;;;;;;;19.10;11.18;;;4.90;99.90;;;;;;5107275;28;20460;-89
2021/04/09 02:30:17;;;;;;;19.15;11.75;;;4.80;99.90;;;;;;5090673;28;20055;-89
2021/04/09 02:32:44;;;;;;;18.20;10.68;;;4.50;99.90;;;;;;5072961;28;20060;-90
2021/04/09 02:35:13;;;;;;;21.75;12.20;;;4.50;99.90;;;;;;5074269;28;20400;-90
2021/04/09 02:37:41;;;;;;;18.65;11.43;;;4.50;99.90;;;;;;5107127;28;20028;-90
2021/04/09 02:40:20;;;;;;;20.27;10.98;;;4.60;99.90;;;;;;5090611;28;20072;-89
2021/04/09 02:42:50;;;;;;;19.00;12.25;;;4.60;99.90;;;;;;5090515;28;20094;-90
2021/04/09 02:45:19;;;;;;;19.40;11.25;;;4.50;99.90;;;;;;5108750;28;20036;-86
2021/04/09 02:47:47;;;;;;;22.08;11.55;;;4.60;99.90;;;;;;5110921;28;20044;-89
2021/04/09 02:50:29;;;;;;;17.40;10.70;;;4.60;99.90;;;;;;5111588;28;20040;-88
2021/04/09 02:53:11;;;;;;;18.75;11.63;;;4.80;99.90;;;;;;5111176;28;20041;-89
2021/04/09 02:55:43;;;;;;;17.08;11.85;;;4.60;99.90;;;;;;5110923;28;20469;-90
2021/04/09 02:58:12;;;;;;;16.35;11.05;;;4.50;99.90;;;;;;5110972;28;20068;-89
2021/04/09 03:00:46;;;;;;;18.38;10.18;;;5.10;99.90;;;;;;5110722;28;20082;-89
2021/04/09 03:03:16;;;;;;;17.38;11.02;;;4.60;99.90;;;;;;5110945;28;20037;-89
2021/04/09 03:05:44;;;;;;;17.25;11.20;;;4.60;99.90;;;;;;5110572;28;20064;-89
2021/04/09 03:08:13;;;;;;;20.63;11.30;;;5.40;99.90;;;;;;5110909;28;20119;-89
2021/04/09 03:10:40;;;;;;;20.20;10.80;;;5.20;99.90;;;;;;5093900;28;20035;-89
2021/04/09 03:13:07;;;;;;;18.40;11.07;;;4.70;99.90;;;;;;5110753;28;20041;-89
2021/04/09 03:15:54;;;;;;;20.65;11.07;;;4.70;99.90;;;;;;5093991;28;20044;-90
2021/04/09 03:18:23;;;;;;;17.52;10.60;;;4.70;99.90;;;;;;5110949;28;20056;-89
2021/04/09 03:20:51;;;;;;;19.70;11.40;;;5.40;99.90;;;;;;5110313;28;20052;-89
2021/04/09 03:23:17;;;;;;;20.05;11.68;;;4.70;99.90;;;;;;5093878;28;20033;-89
2021/04/09 03:25:44;;;;;;;18.33;10.68;;;4.70;99.90;;;;;;5077086;28;20063;-90
2021/04/09 03:28:11;;;;;;;19.48;11.15;;;4.70;99.90;;;;;;5110563;28;20495;-89
2021/04/09 03:30:39;;;;;;;18.77;11.23;;;4.80;99.90;;;;;;5093379;28;20043;-89
2021/04/09 03:33:06;;;;;;;18.92;11.10;;;4.80;99.90;;;;;;5110426;28;20032;-90
2021/04/09 03:35:33;;;;;;;21.63;10.68;;;5.00;99.90;;;;;;5093485;28;20473;-90
2021/04/09 03:37:59;;;;;;;18.00;10.93;;;4.80;99.90;;;;;;5111279;28;20086;-89
2021/04/09 03:40:26;;;;;;;16.35;10.50;;;4.90;99.90;;;;;;5077131;28;20480;-89
2021/04/09 03:42:53;;;;;;;20.02;11.13;;;4.80;99.90;;;;;;5093383;28;20048;-89
2021/04/09 03:45:20;;;;;;;19.40;10.95;;;4.90;99.90;;;;;;5077337;28;20036;-89
2021/04/09 03:47:47;;;;;;;15.85;11.00;;;4.80;99.90;;;;;;5109761;28;20039;-89
2021/04/09 03:50:14;;;;;;;19.90;11.85;;;4.80;99.90;;;;;;5093472;28;20045;-88
2021/04/09 03:52:41;;;;;;;15.52;10.23;;;4.90;99.90;;;;;;5076398;28;20056;-89
2021/04/09 03:55:09;;;;;;;16.45;11.13;;;4.80;99.90;;;;;;5076727;28;20028;-90
2021/04/09 03:57:36;;;;;;;17.48;11.02;;;4.90;99.90;;;;;;5109152;28;20048;-88
2021/04/09 04:00:05;;;;;;;18.35;12.10;;;4.90;99.90;;;;;;5109950;28;20500;-89
2021/04/09 04:02:32;;;;;;;18.80;11.25;;;4.90;99.90;;;;;;5110028;28;20484;-89
2021/04/09 04:04:59;;;;;;;17.85;11.50;;;5.70;99.90;;;;;;5093186;28;20480;-88
2021/04/09 04:07:26;;;;;;;16.23;11.38;;;4.90;99.90;;;;;;5093234;28;20028;-89
2021/04/09 04:09:53;;;;;;;23.92;12.00;;;4.90;99.90;;;;;;5109291;28;20037;-87
2021/04/09 04:12:20;;;;;;;18.92;12.70;;;4.90;99.90;;;;;;5076505;28;20057;-88
2021/04/09 04:14:47;;;;;;;18.25;12.02;;;5.00;99.90;;;;;;5109342;28;20029;-89
2021/04/09 04:17:14;;;;;;;19.42;11.80;;;5.00;99.90;;;;;;5076551;28;20733;-89
2021/04/09 04:19:41;;;;;;;17.50;11.90;;;5.30;99.90;;;;;;5109061;28;20040;-88
2021/04/09 04:22:08;;;;;;;20.80;12.32;;;5.30;99.90;;;;;;5093262;28;20079;-89
2021/04/09 04:24:35;;;;;;;20.08;12.13;;;5.00;99.90;;;;;;5092835;28;20052;-88
2021/04/09 04:27:02;;;;;;;20.75;12.52;;;5.50;99.90;;;;;;5076470;28;20492;-89
2021/04/09 04:29:29;;;;;;;18.90;11.70;;;4.80;99.90;;;;;;5092621;28;20059;-89
2021/04/09 04:31:56;;;;;;;21.65;11.50;;;4.90;99.90;;;;;;5109941;28;20052;-89
2021/04/09 04:34:22;;;;;;;17.98;11.13;;;5.00;99.90;;;;;;5092715;28;20123;-89
2021/04/09 04:36:52;;;;;;;21.00;12.52;;;5.30;99.90;;;;;;5092254;28;20089;-89
2021/04/09 04:39:19;;;;;;;19.63;11.52;;;4.80;99.90;;;;;;5109108;28;20411;-90
2021/04/09 04:41:47;;;;;;;24.27;12.32;;;4.80;99.90;;;;;;5075556;28;20107;-89
2021/04/09 04:44:14;;;;;;;17.70;11.82;;;4.80;99.90;;;;;;5076007;28;20040;-89
2021/04/09 04:46:41;;;;;;;19.90;12.02;;;5.50;99.90;;;;;;5092046;28;20115;-89
2021/04/09 04:49:08;;;;;;;21.05;12.90;;;5.00;99.90;;;;;;5092496;28;20067;-90
2021/04/09 04:51:34;;;;;;;17.52;12.10;;;4.80;99.90;;;;;;5092066;28;20041;-89
2021/04/09 04:54:02;;;;;;;19.88;12.77;;;4.90;99.90;;;;;;5091691;28;20473;-89
2021/04/09 04:56:29;;;;;;;22.65;12.23;;;4.90;99.90;;;;;;5108343;28;20036;-89
2021/04/09 04:58:57;;;;;;;18.27;11.85;;;5.00;99.90;;;;;;5091778;28;20548;-87
2021/04/09 05:01:24;;;;;;;21.17;13.15;;;5.00;99.90;;;;;;5092369;28;20131;-89
2021/04/09 05:03:50;;;;;;;18.10;12.27;;;5.00;99.90;;;;;;5075580;28;20086;-91
2021/04/09 05:06:17;;;;;;;22.63;12.60;;;5.50;99.90;;;;;;5059620;28;20094;-88
2021/04/09 05:08:44;;;;;;;20.27;12.63;;;5.00;99.90;;;;;;5075145;28;20048;-87
2021/04/09 05:11:11;;;;;;;17.67;12.13;;;5.10;99.90;;;;;;5091826;28;20036;-88
2021/04/09 05:13:37;;;;;;;17.85;11.85;;;5.30;99.90;;;;;;5109712;28;20158;-91
2021/04/09 05:16:04;;;;;;;18.98;12.50;;;5.20;99.90;;;;;;5075194;28;20117;-91
2021/04/09 05:18:31;;;;;;;17.48;12.55;;;5.10;99.90;;;;;;5091910;28;20032;-86
2021/04/09 05:20:58;;;;;;;19.52;12.05;;;5.70;99.90;;;;;;5075108;28;20059;-90
2021/04/09 05:23:25;;;;;;;17.90;11.60;;;5.20;99.90;;;;;;5075491;28;20041;-90
2021/04/09 05:25:52;;;;;;;22.25;12.52;;;5.80;99.90;;;;;;5091443;28;20032;-90
2021/04/09 05:28:19;;;;;;;17.60;12.02;;;5.20;99.90;;;;;;5108400;28;20036;-91
2021/04/09 05:30:46;;;;;;;20.45;12.13;;;5.20;99.90;;;;;;5091061;28;20041;-90
2021/04/09 05:33:13;;;;;;;23.65;12.43;;;5.20;99.90;;;;;;5091835;28;20400;-90
2021/04/09 05:35:40;;;;;;;23.48;12.70;;;5.30;99.90;;;;;;5075173;28;20136;-90
2021/04/09 05:38:06;;;;;;;20.73;11.98;;;5.30;99.90;;;;;;5074544;28;20115;-90
2021/04/09 05:40:33;;;;;;;18.73;11.77;;;5.70;99.90;;;;;;5108043;28;20476;-89
2021/04/09 05:43:02;;;;;;;18.75;11.95;;;5.20;99.90;;;;;;5108553;28;20029;-89
2021/04/09 05:45:29;;;;;;;21.08;12.55;;;5.20;99.90;;;;;;5058943;28;20040;-88
2021/04/09 05:48:03;;;;;;;21.05;12.70;;;5.10;99.90;;;;;;5107573;28;20033;-89
2021/04/09 05:50:30;;;;;;;20.35;12.20;;;5.10;99.90;;;;;;5076740;28;20043;-91
2021/04/09 05:52:57;;;;;;;18.88;12.15;;;5.10;99.90;;;;;;5074366;28;20033;-90
2021/04/09 05:55:24;;;;;;;18.77;12.48;;;5.20;99.90;;;;;;5074881;28;20485;-90
2021/04/09 05:57:51;;;;;;;17.95;11.48;;;5.20;99.90;;;;;;5107193;28;20151;-89
2021/04/09 06:00:18;;;;;;;21.10;12.35;;;5.10;99.90;;;;;;5054763;28;20056;-90
2021/04/09 06:02:46;;;;;;;16.30;11.65;;;5.10;99.90;;;;;;5087750;28;20094;-90
2021/04/09 06:05:13;;;;;;;18.73;12.10;;;5.60;99.90;;;;;;5087351;28;20040;-91
2021/04/09 06:07:40;;;;;;;21.23;11.95;;;5.20;99.90;;;;;;5087548;28;20052;-90
2021/04/09 06:10:07;;;;;;;19.60;11.60;;;5.20;99.90;;;;;;5086968;28;20485;-91
2021/04/09 06:12:38;;;;;;;22.27;12.40;;;5.20;99.90;;;;;;5039456;28;20045;-91
2021/04/09 06:15:10;;;;;;;20.58;12.30;;;5.60;99.90;;;;;;5087091;28;20457;-91
2021/04/09 06:17:38;;;;;;;19.45;11.90;;;5.20;99.90;;;;;;5104105;28;20072;-92
2021/04/09 06:20:06;;;;;;;19.63;12.15;;;5.20;99.90;;;;;;5086457;28;20097;-91
2021/04/09 06:22:32;;;;;;;17.67;11.32;;;5.30;99.90;;;;;;5087464;28;20044;-91
2021/04/09 06:25:01;;;;;;;19.50;12.52;;;5.30;99.90;;;;;;5070439;28;20473;-91
2021/04/09 06:27:28;;;;;;;19.38;11.73;;;5.40;99.90;;;;;;5088343;28;20037;-89
2021/04/09 06:29:54;;;;;;;16.75;11.25;;;5.50;99.90;;;;;;5086645;28;20374;-88
2021/04/09 06:32:21;;;;;;;19.48;12.68;;;6.20;99.90;;;;;;5054383;28;20393;-90
2021/04/09 06:34:48;;;;;;;20.35;12.25;;;5.60;99.90;;;;;;5054100;28;20041;-90
2021/04/09 06:37:15;;;;;;;24.60;12.05;;;5.60;99.90;;;;;;5037602;28;20465;-90
2021/04/09 06:39:42;;;;;;;18.05;11.93;;;5.80;99.90;;;;;;5059365;28;20435;-90
2021/04/09 06:42:09;;;;;;;19.65;11.73;;;5.90;99.90;;;;;;5073501;28;20039;-87
2021/04/09 06:44:38;;;;;;;17.23;11.18;;;5.90;99.90;;;;;;5090689;28;20040;-87
2021/04/09 06:47:06;;;;;;;19.65;12.13;;;6.00;99.90;;;;;;5086507;28;20401;-91
2021/04/09 06:49:35;;;;;;;20.55;12.07;;;6.10;99.90;;;;;;5090000;28;20028;-89
2021/04/09 06:52:11;;;;;;;18.33;11.63;;;6.20;99.90;;;;;;5090176;28;20043;-89
2021/04/09 06:54:40;;;;;;;19.75;11.52;;;6.20;99.90;;;;;;5086772;28;20029;-85
2021/04/09 06:57:09;;;;;;;16.88;10.20;;;6.40;99.90;;;;;;5088005;28;20120;-89
2021/04/09 06:59:40;;;;;;;19.88;10.85;;;6.50;99.90;;;;;;5070595;28;20378;-88
2021/04/09 07:02:15;;;;;;;19.08;10.32;;;6.60;99.90;;;;;;5106541;28;20102;-90
2021/04/09 07:04:43;;;;;;;16.10;10.55;;;6.70;99.90;;;;;;5107135;28;20036;-91
2021/04/09 07:07:17;;;;;;;16.88;9.88;;;6.70;99.90;;;;;;5106564;28;20063;-89
2021/04/09 07:09:45;;;;;;;17.58;9.27;;;6.90;99.90;;;;;;5107927;28;20039;-90
2021/04/09 07:12:26;;;;;;;20.80;10.10;;;6.90;99.90;;;;;;5089982;28;20174;-90
2021/04/09 07:14:55;;;;;;;18.27;10.80;;;7.10;99.90;;;;;;5089873;28;20046;-88
2021/04/09 07:17:36;;;;;;;17.13;9.98;;;7.20;99.90;;;;;;5090188;28;20037;-89
2021/04/09 07:20:14;;;;;;;17.52;10.77;;;7.40;99.90;;;;;;5106444;28;20532;-91
2021/04/09 07:22:46;;;;;;;16.52;10.85;;;7.40;99.90;;;;;;5107062;28;20044;-92
2021/04/09 07:25:25;;;;;;;16.60;9.50;;;7.60;99.90;;;;;;5105992;28;20494;-89
2021/04/09 07:28:16;;;;;;;18.70;10.43;;;7.60;99.90;;;;;;5106402;28;20033;-87
2021/04/09 07:30:54;;;;;;;19.38;11.20;;;7.60;99.90;;;;;;5107142;28;20395;-91
2021/04/09 07:33:23;;;;;;;18.48;10.20;;;7.60;99.90;;;;;;5093570;28;20075;-91
2021/04/09 07:35:54;;;;;;;18.42;10.60;;;7.50;99.90;;;;;;5093763;28;20511;-86
2021/04/09 07:38:24;;;;;;;20.73;11.40;;;7.60;99.90;;;;;;5092805;28;20036;-87
2021/04/09 07:41:02;;;;;;;19.88;10.35;;;7.60;99.90;;;;;;5093861;28;20068;-91
2021/04/09 07:43:34;;;;;;;18.95;10.75;;;7.50;99.90;;;;;;5090299;28;20111;-90
2021/04/09 07:46:03;;;;;;;17.25;10.40;;;7.50;99.90;;;;;;5073348;28;20037;-88
2021/04/09 07:48:32;;;;;;;15.45;9.75;;;7.50;99.90;;;;;;5073855;28;20040;-90
2021/04/09 07:51:00;;;;;;;20.98;10.55;;;7.60;99.90;;;;;;5057057;28;20049;-91
2021/04/09 07:53:29;;;;;;;20.63;10.90;;;7.60;99.90;;;;;;5073537;28;20037;-89
2021/04/09 07:56:06;;;;;;;22.00;10.68;;;7.70;99.90;;;;;;5106241;28;20037;-89
2021/04/09 07:58:34;;;;;;;18.73;10.95;;;7.80;99.90;;;;;;5099582;28;20049;-89
2021/04/09 08:01:02;;;;;;;19.50;10.07;;;7.80;99.90;;;;;;5092529;28;20044;-88
2021/04/09 08:03:41;;;;;;;17.63;9.45;;;7.80;99.90;;;;;;5109367;28;20052;-89
2021/04/09 08:06:11;;;;;;;16.17;9.80;;;7.90;99.90;;;;;;5093057;28;20116;-90
2021/04/09 08:08:59;;;;;;;21.92;10.57;;;7.90;99.90;;;;;;5110627;28;20461;-91
2021/04/09 08:11:35;;;;;;;20.65;9.80;;;7.90;99.90;;;;;;5092550;28;20045;-91
2021/04/09 08:14:08;;;;;;;15.18;9.52;;;7.90;99.90;;;;;;5092453;28;20400;-91
2021/04/09 08:16:42;;;;;;;18.33;8.98;;;7.90;99.90;;;;;;5109803;28;20090;-91
2021/04/09 08:19:11;;;;;;;16.25;8.90;;;8.00;99.90;;;;;;5075803;28;20070;-88
2021/04/09 08:21:41;;;;;;;17.10;8.63;;;7.90;99.90;;;;;;5092988;28;20060;-91
2021/04/09 08:24:10;;;;;;;16.95;8.07;;;7.90;99.90;;;;;;5109237;28;20037;-89
2021/04/09 08:26:39;;;;;;;15.45;8.27;;;7.90;99.90;;;;;;5109624;28;20567;-91
2021/04/09 08:29:08;;;;;;;18.00;8.63;;;7.90;99.90;;;;;;5059961;28;20068;-92
2021/04/09 08:31:37;;;;;;;17.58;7.88;;;8.00;99.90;;;;;;5109951;28;20040;-92
2021/04/09 08:34:06;;;;;;;15.90;7.10;;;8.00;99.90;;;;;;5109097;28;20044;-89
2021/04/09 08:36:34;;;;;;;18.33;8.18;;;8.10;99.90;;;;;;5093047;28;20043;-90
2021/04/09 08:39:04;;;;;;;18.05;8.38;;;8.00;99.90;;;;;;5109253;28;20028;-92
2021/04/09 08:41:39;;;;;;;16.73;8.45;;;8.00;99.90;;;;;;5109359;28;20081;-91
2021/04/09 08:44:10;;;;;;;19.67;8.35;;;8.00;99.90;;;;;;5091090;28;20035;-90
2021/04/09 08:46:38;;;;;;;17.08;8.57;;;8.00;99.90;;;;;;5092802;28;20033;-92
2021/04/09 08:49:07;;;;;;;15.27;7.75;;;8.20;99.90;;;;;;5092276;28;20037;-90
2021/04/09 08:51:38;;;;;;;15.68;8.13;;;8.00;99.90;;;;;;5075667;28;20541;-88
2021/04/09 08:54:14;;;;;;;14.23;7.45;;;8.10;99.90;;;;;;5091999;28;20511;-90
2021/04/09 08:56:41;;;;;;;;;;;8.10;99.90;;;;;;5109125;28;20103;-91
2021/04/09 08:59:08;;;;;;;18.45;8.88;;;8.20;99.90;;;;;;5110094;28;19920;-89
2021/04/09 09:01:35;;;;;;;15.98;7.93;;;8.30;99.90;;;;;;5109480;28;20166;-92
2021/04/09 09:04:20;;;;;;;15.15;8.20;;;8.30;99.90;;;;;;5075011;28;20060;-89
2021/04/09 09:06:49;;;;;;;16.77;7.60;;;8.30;99.90;;;;;;5090703;28;20178;-87
2021/04/09 09:09:27;;;;;;;15.75;7.97;;;8.40;99.90;;;;;;5107473;28;20036;-88
2021/04/09 09:11:57;;;;;;;15.00;7.15;;;8.40;99.90;;;;;;5091717;28;20051;-90
2021/04/09 09:14:33;;;;;;;15.75;7.90;;;8.50;99.90;;;;;;5107742;28;20040;-89
2021/04/09 09:17:26;;;;;;;14.32;7.13;;;8.50;99.90;;;;;;5092118;28;20074;-89
2021/04/09 09:20:02;;;;;;;17.15;8.65;;;8.50;99.90;;;;;;5100181;28;20052;-91
2021/04/09 09:22:46;;;;;;;16.45;8.50;;;8.40;99.90;;;;;;5108511;28;20537;-91
2021/04/09 09:25:15;;;;;;;19.33;9.32;;;8.50;99.90;;;;;;5108722;28;20040;-90
2021/04/09 09:27:47;;;;;;;20.02;9.30;;;8.50;99.90;;;;;;5108409;28;20124;-90
2021/04/09 09:30:38;;;;;;;16.08;8.65;;;8.70;99.90;;;;;;5074262;28;20062;-90
2021/04/09 09:33:25;;;;;;;17.10;8.80;;;8.80;99.90;;;;;;5098254;28;20052;-90
2021/04/09 09:36:09;;;;;;;18.27;8.07;;;8.90;99.90;;;;;;5091737;28;20094;-87
2021/04/09 09:38:56;;;;;;;17.35;7.60;;;9.10;99.90;;;;;;5091113;28;20044;-90
2021/04/09 09:41:33;;;;;;;17.88;8.18;;;9.10;99.90;;;;;;5107938;28;20044;-90
2021/04/09 09:44:01;;;;;;;13.45;7.45;;;9.20;99.90;;;;;;5107755;28;20036;-86
2021/04/09 09:46:51;;;;;;;18.13;6.85;;;9.30;99.90;;;;;;5108009;28;20114;-88
2021/04/09 09:49:22;;;;;;;16.52;7.22;;;9.30;99.90;;;;;;5109322;28;20092;-88
2021/04/09 09:51:52;;;;;;;22.08;7.60;;;9.30;99.90;;;;;;5076064;28;20551;-91
2021/04/09 09:54:31;;;;;;;16.25;7.35;;;9.40;99.90;;;;;;5074476;28;20465;-88
2021/04/09 09:56:59;;;;;;;17.25;7.15;;;9.20;99.90;;;;;;5090708;28;20044;-88
2021/04/09 09:59:28;;;;;;;16.60;7.13;;;9.20;99.90;;;;;;5106871;28;20108;-88
2021/04/09 10:01:59;;;;;;;13.80;6.28;;;9.10;99.90;;;;;;5107155;28;20097;-88
2021/04/09 10:04:26;;;;;;;13.25;6.50;;;9.10;99.90;;;;;;5089927;28;20028;-87
2021/04/09 10:06:53;;;;;;;14.80;6.38;;;9.00;99.90;;;;;;5090397;28;20028;-88
2021/04/09 10:09:31;;;;;;;16.40;6.57;;;9.00;99.90;;;;;;5106313;28;20439;-87
2021/04/09 10:11:59;;;;;;;11.57;5.53;;;9.00;99.90;;;;;;5107900;28;20040;-88
2021/04/09 10:14:28;;;;;;;14.60;6.85;;;9.00;99.90;;;;;;5092989;28;20048;-85
2021/04/09 10:16:59;;;;;;;12.57;5.80;;;9.00;99.90;;;;;;5074219;28;20040;-86
2021/04/09 10:19:26;;;;;;;15.02;6.25;;;9.00;99.90;;;;;;5073438;28;20112;-87
2021/04/09 10:21:53;;;;;;;14.85;6.00;;;9.00;99.90;;;;;;5107026;28;20518;-89
2021/04/09 10:24:21;;;;;;;11.82;5.43;;;8.90;99.90;;;;;;5106825;28;20060;-89
2021/04/09 10:27:02;;;;;;;13.43;5.70;;;9.00;99.90;;;;;;5106773;28;20382;-85
2021/04/09 10:29:37;;;;;;;10.25;5.00;;;9.10;99.90;;;;;;5090084;28;20047;-89
2021/04/09 10:32:12;;;;;;;11.82;4.95;;;9.30;99.90;;;;;;5090385;28;20103;-87
2021/04/09 10:34:39;;;;;;;;;;;9.10;99.90;;;;;;5107174;28;20036;-88
2021/04/09 10:37:06;;;;;;;13.98;4.40;;;9.10;99.90;;;;;;5090140;28;20387;-91
2021/04/09 10:39:33;;;;;;;19.33;4.38;;;9.10;99.90;;;;;;5090516;28;20402;-88
2021/04/09 10:42:03;;;;;;;10.55;4.60;;;9.10;99.90;;;;;;5106871;28;20040;-91
2021/04/09 10:44:33;;;;;;;15.13;4.65;;;9.00;99.90;;;;;;5106342;28;21144;-90
2021/04/09 10:47:03;;;;;;;12.45;4.80;;;9.00;99.90;;;;;;5090765;28;20051;-87
2021/04/09 10:49:34;;;;;;;8.95;4.60;;;9.00;99.90;;;;;;5108913;28;20040;-91
2021/04/09 10:52:15;;;;;;;13.00;4.35;;;8.90;99.90;;;;;;5090247;28;20089;-90
2021/04/09 10:54:44;;;;;;;14.38;4.32;;;9.10;99.90;;;;;;5090173;28;20448;-88
2021/04/09 10:57:18;;;;;;;13.65;4.68;;;8.90;99.90;;;;;;5107836;28;20557;-89
2021/04/09 10:59:49;;;;;;;11.90;4.55;;;8.90;99.90;;;;;;5107029;28;20051;-90
2021/04/09 11:02:21;;;;;;;11.60;3.85;;;8.90;99.90;;;;;;5106553;28;20119;-89
2021/04/09 11:04:53;;;;;;;13.05;4.22;;;8.90;99.90;;;;;;5069890;28;20044;-90
2021/04/09 11:07:20;;;;;;;12.95;4.28;;;8.90;99.90;;;;;;5089275;28;20179;-90
2021/04/09 11:09:49;;;;;;;13.18;3.75;;;8.90;99.90;;;;;;5090768;28;20108;-89
2021/04/09 11:12:23;;;;;;;13.00;4.13;;;8.90;99.90;;;;;;5090174;28;20037;-91
2021/04/09 11:15:10;;;;;;;12.57;4.03;;;8.90;99.90;;;;;;5090254;28;20064;-89
2021/04/09 11:17:37;;;;;;;;;;;8.90;99.90;;;;;;5090653;28;20033;-87
2021/04/09 11:20:27;;;;;;;12.70;3.95;;;8.70;99.90;;;;;;5090220;28;19917;-87
2021/04/09 11:23:05;;;;;;;13.27;4.00;;;8.80;99.90;;;;;;5090280;28;20033;-88
2021/04/09 11:25:40;;;;;;;10.00;3.90;;;8.80;99.90;;;;;;5089762;28;20064;-88
2021/04/09 11:28:08;;;;;;;9.43;3.58;;;8.80;99.90;;;;;;5089703;28;20033;-87
2021/04/09 11:30:37;;;;;;;13.15;4.13;;;8.90;99.90;;;;;;5089248;28;20037;-87
2021/04/09 11:33:04;;;;;;;15.65;3.97;;;8.90;99.90;;;;;;5073200;28;20448;-88
2021/04/09 11:35:35;;;;;;;11.55;4.00;;;8.90;99.90;;;;;;5102188;28;20060;-87
2021/04/09 11:38:12;;;;;;;12.05;3.60;;;8.90;99.90;;;;;;5109687;28;20480;-87
2021/04/09 11:40:43;;;;;;;11.63;3.47;;;9.00;99.90;;;;;;5109565;28;20131;-87
2021/04/09 11:43:14;;;;;;;10.18;3.42;;;9.00;99.90;;;;;;5109774;28;20033;-87
2021/04/09 11:45:46;;;;;;;13.05;3.50;;;9.00;99.90;;;;;;5076484;28;20472;-85
2021/04/09 11:48:23;;;;;;;9.57;3.40;;;9.00;99.90;;;;;;5109607;28;20431;-87
2021/04/09 11:50:50;;;;;;;13.45;4.07;;;9.10;99.90;;;;;;5109675;28;20488;-87
2021/04/09 11:53:17;;;;;;;13.02;3.95;;;9.20;99.90;;;;;;5109479;28;20074;-87
2021/04/09 11:55:47;;;;;;;10.85;3.97;;;9.30;99.90;;;;;;5092841;28;20068;-87
2021/04/09 11:58:20;;;;;;;10.93;3.40;;;9.30;99.90;;;;;;5109149;28;20099;-87
2021/04/09 12:00:58;;;;;;;8.45;3.75;;;9.40;99.90;;;;;;5109576;28;20439;-88
2021/04/09 12:03:43;;;;;;;9.38;3.25;;;9.40;99.90;;;;;;5108988;28;20120;-86
2021/04/09 12:06:12;;;;;;;11.90;3.55;;;9.40;99.90;;;;;;5109231;28;20078;-88
2021/04/09 12:08:39;;;;;;;13.13;4.00;;;9.40;99.90;;;;;;5092471;28;20040;-88
2021/04/09 12:11:08;;;;;;;9.60;3.90;;;9.50;99.90;;;;;;5092920;28;20036;-89
2021/04/09 12:13:44;;;;;;;8.30;3.85;;;9.60;99.90;;;;;;5108956;28;20033;-90
2021/04/09 12:16:11;;;;;;;9.57;3.70;;;9.60;99.90;;;;;;5109906;28;20591;-89
2021/04/09 12:18:38;;;;;;;10.13;3.60;;;9.70;99.90;;;;;;5075851;28;20131;-85
2021/04/09 12:21:05;;;;;;;11.18;3.67;;;9.80;99.90;;;;;;5075888;28;20139;-86
2021/04/09 12:23:32;;;;;;;7.90;3.65;;;9.90;99.90;;;;;;5059394;28;20059;-88
2021/04/09 12:25:59;;;;;;;9.65;3.63;;;9.90;99.90;;;;;;5092622;28;20476;-89
2021/04/09 12:28:29;;;;;;;10.05;3.88;;;10.10;99.90;;;;;;5092368;28;20090;-89
2021/04/09 12:30:56;;;;;;;13.10;3.80;;;10.10;99.90;;;;;;5092882;28;20409;-88
2021/04/09 12:33:23;;;;;;;9.18;3.38;;;10.30;99.90;;;;;;5108492;28;20032;-87
2021/04/09 12:35:50;;;;;;;8.82;3.33;;;10.30;99.90;;;;;;5055828;28;20064;-88
2021/04/09 12:38:17;;;;;;;8.85;3.63;;;10.40;99.90;;;;;;5071626;28;20441;-86
2021/04/09 12:40:44;;;;;;;12.07;3.47;;;10.30;99.90;;;;;;5088902;28;20080;-91
2021/04/09 12:43:11;;;;;;;9.93;3.58;;;10.40;99.90;;;;;;5072139;28;20033;-92
2021/04/09 12:45:38;;;;;;;9.45;3.83;;;10.30;99.90;;;;;;5071922;28;20366;-87
2021/04/09 12:48:05;;;;;;;8.80;3.80;;;10.30;99.90;;;;;;5106097;28;20052;-89
2021/04/09 12:50:32;;;;;;;9.50;3.13;;;10.30;99.90;;;;;;5088337;28;20048;-90
2021/04/09 12:52:59;;;;;;;9.07;3.00;;;10.20;99.90;;;;;;5088364;28;20078;-87
2021/04/09 12:55:27;;;;;;;8.02;3.00;;;10.20;99.90;;;;;;5088605;28;20037;-92
2021/04/09 12:57:53;;;;;;;8.38;3.25;;;10.30;99.90;;;;;;5088499;28;20128;-95